MMMY/MTY METAR and TAF weather

Enter ICAO airport designator
Station Type Date Time Source
MMMY METAR 2022/07/03 13:42 UTC NOAA

MMMY 031342Z 00000KT 8SM SCT020 BKN100 26/21 A2997 RMK 8/530


Station Type Date Time Source
MMMY Decoded METAR 2022/07/03 13:42 UTC NOAA

Monterrey / Gen Maria, Mexico (MMMY) 25-47N 100-06W
Jul 03, 2022 - 09:42 AM EDT / 2022.07.03 1342 UTC
Wind: Calm:0
Visibility: 8 mile(s):0
Sky conditions: mostly cloudy
Temperature: 78 F (26 C)
Dew Point: 69 F (21 C)
Relative Humidity: 73%
Pressure (altimeter): 29.97 in. Hg (1014 hPa)
ob: MMMY 031342Z 00000KT 8SM SCT020 BKN100 26/21 A2997 RMK 8/530
cycle: 13

Station Type Date Time Source
MMMY TAF 2022/07/03 12:55 UTC NOAA

TAF MMMY 031048Z 0312/0418 11005KT P6SM OVC020 TX35/0321Z TN24/0312Z
FM031500 12005KT P6SM SCT020
FM032200 13012KT P6SM SCT020CB BKN080 PROB40 0322/0402 3SM TSRA
FM040200 13005KT P6SM SCT020 BKN080
FM040800 12005KT 5SM HZ OVC020
FM041600 12010KT P6SM SCT020

Example: see airport list